Waterloo Wellington, Ontario

2:56 AM EDT on September 30, 2016 (GMT -0400)
City | | Change Station

Elev 951 ft 43.40 °N, 80.34 °W | Updated 12 minutes ago

Mostly Cloudy
Mostly Cloudy
57.0 °F
Feels Like 57.0 °F
N
8.9
Wind Variable Wind from East

Today
High -- | Low -- °F
--% Chance of Precip.
Yesterday
High -- | Low -- °F
Precip. -- in
Pressure 30.31 in
Visibility 9.0 miles
Clouds Scattered Clouds 1100 ft
Scattered Clouds 1600 ft
Mostly Cloudy 12000 ft
Mostly Cloudy 23000 ft
Dew Point 54 °F
Humidity 88%
Rainfall 0.00 in
Snow Depth Not available.
7:18 AM 7:03 PM
Waning Crescent, 0% visible
SPECI CYKF 300601Z AUTO 08013G19KT 9SM SCT011 SCT016 BKN120 BKN230 14/13 A3029 RMK SLP262
Pressure 30.31 in
Visibility 9.0 miles
Clouds Scattered Clouds 1100 ft
Scattered Clouds 1600 ft
Mostly Cloudy 12000 ft
Mostly Cloudy 23000 ft
Dew Point 54 °F
Humidity 88%
Rainfall 0.00 in
Snow Depth Not available.
7:18 AM 7:03 PM
Waning Crescent, 0% visible
SPECI CYKF 300601Z AUTO 08013G19KT 9SM SCT011 SCT016 BKN120 BKN230 14/13 A3029 RMK SLP262

10-Day Weather Forecast

Almanac

Astronomy

Sep. 30, 2016 Rise Set
Actual Time
Civil Twilight
Nautical Twilight
Astronomical Twilight
Moon
Length of Visible Light
Length of Day
Tomorrow will be .
, % of the Moon is Illuminated

Today's Extremes

Country Highs Country Lows

Community

WunderPhotos

Upload Photos

1,942,668 photos uploaded!

WunderBlog® & News

Nearby

Air Quality

  Air Quality AQ Index Pollutant
Not available.

Snow Depth

Station Depth Elevation

Earthquake Activity

City Distance Mag. Time & Date
Minimum magnitude displayed is 2.5.

Coastal Water Temperatures

Place Temperature

Stations

Nearby Weather Stations

Station Location Temp. Windchill Dew Point Humidity Wind Precip. Elev Updated Type
                   

Watches & Warnings

There are currently no watches in effect.